createdAt,value
2024-05-09T00:00:26.482Z,90.48
2024-05-09T00:02:34.527Z,91.52
2024-05-09T00:04:40.529Z,91.21
2024-05-09T00:06:43.687Z,91.92
2024-05-09T00:08:46.979Z,91.31
2024-05-09T00:10:50.206Z,91.09
2024-05-09T00:12:53.409Z,91.69
2024-05-09T00:14:56.469Z,90.67
2024-05-09T00:16:59.692Z,90.05
2024-05-09T00:19:03.129Z,89.67
2024-05-09T00:21:10.175Z,89.33
2024-05-09T00:23:16.124Z,89.59
2024-05-09T00:25:19.424Z,89.43
2024-05-09T00:27:23.035Z,88.99
2024-05-09T00:29:26.551Z,89.29
2024-05-09T00:31:29.759Z,89.36
2024-05-09T00:33:33.066Z,89.14
2024-05-09T00:35:36.473Z,90.61
2024-05-09T00:37:42.735Z,92.53
2024-05-09T00:39:45.770Z,93.30
2024-05-09T00:41:48.980Z,92.89
2024-05-09T00:43:52.132Z,92.68
2024-05-09T00:45:57.254Z,93.69
2024-05-09T00:48:05.308Z,94.06
2024-05-09T00:50:15.469Z,93.21
2024-05-09T00:52:22.369Z,92.80
2024-05-09T00:54:29.070Z,92.24
2024-05-09T00:56:35.569Z,92.64
2024-05-09T00:58:39.367Z,91.46
2024-05-09T01:00:42.947Z,91.58
2024-05-09T01:02:46.468Z,91.33
2024-05-09T01:04:50.680Z,91.40
2024-05-09T01:06:53.851Z,91.09
2024-05-09T01:08:57.134Z,90.53
2024-05-09T01:11:03.111Z,89.80
2024-05-09T01:13:07.378Z,89.77
2024-05-09T01:15:10.861Z,89.26
2024-05-09T01:17:14.624Z,89.54
2024-05-09T01:19:23.739Z,89.52
2024-05-09T01:21:27.051Z,88.90
2024-05-09T01:23:33.120Z,88.45
2024-05-09T01:25:36.395Z,88.60
2024-05-09T01:27:39.890Z,88.97
2024-05-09T01:29:42.996Z,89.07
2024-05-09T01:31:47.296Z,88.61
2024-05-09T01:33:50.478Z,88.08
2024-05-09T01:35:53.704Z,87.78
2024-05-09T01:37:56.813Z,87.87
2024-05-09T01:40:03.540Z,88.07
2024-05-09T01:42:07.001Z,87.58
2024-05-09T01:44:10.449Z,87.73
2024-05-09T01:46:15.613Z,87.65
2024-05-09T01:48:18.855Z,87.76
2024-05-09T01:50:33.227Z,87.80
2024-05-09T01:52:41.166Z,87.73
2024-05-09T01:54:44.347Z,87.82
2024-05-09T01:56:50.289Z,87.69
2024-05-09T01:58:53.531Z,87.79
2024-05-09T02:00:57.428Z,87.91
2024-05-09T02:03:00.847Z,88.58
2024-05-09T02:05:04.956Z,88.49
2024-05-09T02:07:08.570Z,88.82
2024-05-09T02:09:12.041Z,88.77
2024-05-09T02:11:15.219Z,88.94
2024-05-09T02:13:21.172Z,89.75
2024-05-09T02:15:24.271Z,90.49
2024-05-09T02:17:27.661Z,90.19
2024-05-09T02:19:31.281Z,89.93
2024-05-09T02:21:34.819Z,89.81
2024-05-09T02:23:38.004Z,90.45
2024-05-09T02:25:42.074Z,91.24
2024-05-09T02:27:45.219Z,91.65
2024-05-09T02:29:51.150Z,91.36
2024-05-09T02:31:54.355Z,91.82
2024-05-09T02:33:57.728Z,91.98
2024-05-09T02:36:01.039Z,91.99
2024-05-09T02:38:04.694Z,91.86
2024-05-09T02:40:14.258Z,91.72
2024-05-09T02:42:17.973Z,92.15
2024-05-09T02:44:21.738Z,92.44
2024-05-09T02:46:27.652Z,92.22
2024-05-09T02:48:30.887Z,92.44
2024-05-09T02:50:38.691Z,92.48
2024-05-09T02:52:43.205Z,92.80
2024-05-09T02:54:46.458Z,93.41
2024-05-09T02:56:49.680Z,93.41
2024-05-09T02:58:52.983Z,93.31
2024-05-09T03:00:56.225Z,93.36
2024-05-09T03:03:02.509Z,93.76
2024-05-09T03:05:06.545Z,93.92
2024-05-09T03:07:09.748Z,93.69
2024-05-09T03:09:12.850Z,93.65
2024-05-09T03:11:23.389Z,94.16
2024-05-09T03:13:26.663Z,93.57
2024-05-09T03:15:32.918Z,93.90
2024-05-09T03:17:36.411Z,94.29
2024-05-09T03:19:42.547Z,94.75
2024-05-09T03:21:45.730Z,94.89
2024-05-09T03:23:49.211Z,94.78
2024-05-09T03:25:54.481Z,95.34
2024-05-09T03:27:57.813Z,94.76
2024-05-09T03:30:00.833Z,95.04
2024-05-09T03:32:04.556Z,94.69
2024-05-09T03:34:07.923Z,94.74
2024-05-09T03:36:13.839Z,94.72
2024-05-09T03:38:17.256Z,94.99
2024-05-09T03:40:23.891Z,95.53
2024-05-09T03:42:29.783Z,95.22
2024-05-09T03:44:32.976Z,95.83
2024-05-09T03:46:38.782Z,96.09
2024-05-09T03:48:42.080Z,96.12
2024-05-09T03:50:45.355Z,96.02
2024-05-09T03:52:51.507Z,95.61
2024-05-09T03:54:54.973Z,96.09
2024-05-09T03:56:58.149Z,96.50
2024-05-09T03:59:01.337Z,96.60
2024-05-09T04:01:05.044Z,96.02
2024-05-09T04:03:11.203Z,95.90
2024-05-09T04:05:16.051Z,96.06
2024-05-09T04:07:19.239Z,95.93
2024-05-09T04:09:25.099Z,95.42
2024-05-09T04:11:28.225Z,95.25
2024-05-09T04:13:31.439Z,95.12
2024-05-09T04:15:34.619Z,95.51
2024-05-09T04:17:38.077Z,96.09
2024-05-09T04:19:41.454Z,95.67
2024-05-09T04:21:44.727Z,95.35
2024-05-09T04:23:48.127Z,95.65
2024-05-09T04:25:54.130Z,96.27
2024-05-09T04:27:57.548Z,96.08
2024-05-09T04:30:00.768Z,96.14
2024-05-09T04:32:05.002Z,96.04
2024-05-09T04:34:08.452Z,95.71
2024-05-09T04:36:11.685Z,96.05
2024-05-09T04:38:15.565Z,96.01
2024-05-09T04:40:27.818Z,95.58
2024-05-09T04:42:41.055Z,95.17
2024-05-09T04:44:44.547Z,94.69
2024-05-09T04:46:48.001Z,94.20
2024-05-09T04:48:51.345Z,93.92
2024-05-09T04:50:54.950Z,93.64
2024-05-09T04:52:58.130Z,92.71
2024-05-09T04:55:01.282Z,92.93
2024-05-09T04:57:04.649Z,92.75
2024-05-09T04:59:10.678Z,91.86
2024-05-09T05:01:15.354Z,91.66
2024-05-09T05:03:19.199Z,90.02
2024-05-09T05:05:22.524Z,90.61
2024-05-09T05:07:25.736Z,91.44
2024-05-09T05:09:28.818Z,89.37
2024-05-09T05:11:32.435Z,87.62
2024-05-09T05:13:38.647Z,87.48
2024-05-09T05:15:46.872Z,86.96
2024-05-09T05:17:50.273Z,86.57
2024-05-09T05:19:54.576Z,86.73
2024-05-09T05:21:57.839Z,86.68
2024-05-09T05:24:01.030Z,86.40
2024-05-09T05:26:05.620Z,83.26
2024-05-09T05:28:09.166Z,84.12
2024-05-09T05:30:17.941Z,85.08
2024-05-09T05:32:30.722Z,83.01
2024-05-09T05:34:34.110Z,82.46
2024-05-09T05:36:37.315Z,83.19
2024-05-09T05:38:40.603Z,83.08
2024-05-09T05:40:44.125Z,82.47
2024-05-09T05:42:47.231Z,82.09
2024-05-09T05:44:50.810Z,82.50
2024-05-09T05:46:53.985Z,81.63
2024-05-09T05:49:00.168Z,80.64
2024-05-09T05:51:06.328Z,82.61
2024-05-09T05:53:10.855Z,82.69
2024-05-09T05:55:14.235Z,81.95
2024-05-09T05:57:17.511Z,81.11
2024-05-09T05:59:20.741Z,80.92
2024-05-09T06:01:23.963Z,79.72
2024-05-09T06:03:28.866Z,79.27
2024-05-09T06:05:36.746Z,77.29
2024-05-09T06:07:39.899Z,74.05
2024-05-09T06:09:44.262Z,74.53
2024-05-09T06:11:48.570Z,71.71
2024-05-09T06:13:52.214Z,69.56
2024-05-09T06:15:56.032Z,68.14
2024-05-09T06:17:59.456Z,71.04
2024-05-09T06:20:03.009Z,62.01
2024-05-09T06:22:10.069Z,58.87
2024-05-09T06:24:13.645Z,64.69
2024-05-09T06:26:16.983Z,58.13
2024-05-09T06:28:20.102Z,61.37
2024-05-09T06:30:30.359Z,62.24
2024-05-09T06:32:43.735Z,65.99
2024-05-09T06:34:47.956Z,60.88
2024-05-09T06:36:51.487Z,60.49
2024-05-09T06:38:57.442Z,59.58
2024-05-09T06:41:00.623Z,61.22
2024-05-09T06:43:04.067Z,57.14
2024-05-09T06:45:07.589Z,61.22
2024-05-09T06:47:11.184Z,57.42
2024-05-09T06:49:14.881Z,57.16
2024-05-09T06:51:18.376Z,54.68
2024-05-09T06:53:23.955Z,51.99
2024-05-09T06:55:29.547Z,51.37
2024-05-09T06:57:32.634Z,54.06
2024-05-09T06:59:36.120Z,53.56
2024-05-09T07:01:39.434Z,49.72
2024-05-09T07:03:42.893Z,50.01
2024-05-09T07:05:48.039Z,48.10
2024-05-09T07:07:52.450Z,50.41
2024-05-09T07:09:55.821Z,49.39
2024-05-09T07:12:01.887Z,48.17
2024-05-09T07:14:05.076Z,49.88
2024-05-09T07:16:08.311Z,49.76
2024-05-09T07:18:12.860Z,49.96
2024-05-09T07:20:23.585Z,51.25
2024-05-09T07:22:35.224Z,50.22
2024-05-09T07:24:38.368Z,50.50
2024-05-09T07:26:41.510Z,50.32
2024-05-09T07:28:47.614Z,47.09
2024-05-09T07:30:50.730Z,49.46
2024-05-09T07:32:54.276Z,50.77
2024-05-09T07:35:01.623Z,48.63
2024-05-09T07:37:13.072Z,49.16
2024-05-09T07:39:17.868Z,50.54
2024-05-09T07:41:25.821Z,48.50
2024-05-09T07:43:33.555Z,50.67
2024-05-09T07:45:52.415Z,46.45
2024-05-09T07:53:32.748Z,50.05
2024-05-09T07:54:59.840Z,46.82
2024-05-09T07:57:07.166Z,47.93
2024-05-09T07:59:13.232Z,46.54
2024-05-09T08:01:20.883Z,44.29
2024-05-09T08:03:25.491Z,45.72
2024-05-09T08:05:28.928Z,46.92
2024-05-09T08:07:35.131Z,48.34
2024-05-09T08:09:40.138Z,44.10
2024-05-09T08:11:43.595Z,45.77
2024-05-09T08:13:46.845Z,45.46
2024-05-09T08:15:50.094Z,43.44
2024-05-09T08:17:56.761Z,44.65
2024-05-09T08:20:01.014Z,44.59
2024-05-09T08:22:07.422Z,44.89
2024-05-09T08:24:10.936Z,43.46
2024-05-09T08:26:14.734Z,43.68
2024-05-09T08:28:18.094Z,43.58
2024-05-09T08:30:29.068Z,41.51
2024-05-09T08:32:39.002Z,42.65
2024-05-09T08:34:45.382Z,44.45
2024-05-09T08:36:48.760Z,43.89
2024-05-09T08:38:51.903Z,43.77
2024-05-09T08:40:55.325Z,40.29
2024-05-09T08:43:00.991Z,42.96
2024-05-09T08:45:05.078Z,38.59
2024-05-09T08:47:10.468Z,36.59
2024-05-09T08:49:14.833Z,38.65
2024-05-09T08:51:21.557Z,37.00
2024-05-09T08:53:24.931Z,39.38
2024-05-09T08:55:28.287Z,38.63
2024-05-09T08:57:32.657Z,41.19
2024-05-09T08:59:39.689Z,38.52
2024-05-09T09:01:44.555Z,40.06
2024-05-09T09:03:49.516Z,40.78
2024-05-09T09:05:59.420Z,37.56
2024-05-09T09:08:08.794Z,37.98
2024-05-09T09:10:17.830Z,38.38
2024-05-09T09:12:28.368Z,37.28
2024-05-09T09:14:31.640Z,40.00
2024-05-09T09:16:35.277Z,38.57
2024-05-09T09:18:38.915Z,39.36
2024-05-09T09:20:42.579Z,37.77
2024-05-09T09:22:45.991Z,35.26
2024-05-09T09:24:51.931Z,37.21
2024-05-09T09:26:57.483Z,35.15
2024-05-09T09:29:02.375Z,33.17
2024-05-09T09:31:05.949Z,33.33
2024-05-09T09:33:10.761Z,33.76
2024-05-09T09:35:14.231Z,36.54
2024-05-09T09:37:23.781Z,34.90
2024-05-09T09:39:29.694Z,33.99
2024-05-09T09:41:37.443Z,33.94
2024-05-09T09:43:41.576Z,32.68
2024-05-09T09:45:45.662Z,34.81
2024-05-09T09:47:50.130Z,35.48
2024-05-09T09:49:54.535Z,32.80
2024-05-09T09:51:57.960Z,32.45
2024-05-09T09:54:04.361Z,33.39
2024-05-09T09:56:10.652Z,36.21
2024-05-09T09:58:18.046Z,35.57
2024-05-09T10:00:30.001Z,34.04
2024-05-09T10:02:35.860Z,34.43
2024-05-09T10:04:39.437Z,33.50
2024-05-09T10:06:44.845Z,36.83
2024-05-09T10:08:48.654Z,36.47
2024-05-09T10:10:52.395Z,32.62
2024-05-09T10:13:00.487Z,34.20
2024-05-09T10:15:10.326Z,32.11
2024-05-09T10:17:13.609Z,33.90
2024-05-09T10:19:27.267Z,37.14
2024-05-09T10:21:30.687Z,33.94
2024-05-09T10:23:34.859Z,31.49
2024-05-09T10:25:39.388Z,32.62
2024-05-09T10:27:42.978Z,30.52
2024-05-09T10:29:53.514Z,31.39
2024-05-09T10:32:00.685Z,31.00
2024-05-09T10:34:06.726Z,32.59
2024-05-09T10:36:13.431Z,35.13
2024-05-09T10:38:16.689Z,35.75
2024-05-09T10:40:26.419Z,34.60
2024-05-09T10:42:34.625Z,33.39
2024-05-09T10:44:38.800Z,33.31
2024-05-09T10:46:42.705Z,32.98
2024-05-09T10:48:49.054Z,33.83
2024-05-09T10:50:52.632Z,34.79
2024-05-09T10:52:55.891Z,32.80
2024-05-09T10:55:00.396Z,33.55
2024-05-09T10:57:04.685Z,33.58
2024-05-09T10:59:08.054Z,33.63
2024-05-09T11:01:11.816Z,33.08
2024-05-09T11:03:16.812Z,32.66
2024-05-09T11:05:23.191Z,35.12
2024-05-09T11:07:28.118Z,36.26
2024-05-09T11:09:32.481Z,33.42
2024-05-09T11:11:36.594Z,30.96
2024-05-09T11:13:40.940Z,36.02
2024-05-09T11:15:44.545Z,35.49
2024-05-09T11:17:47.856Z,35.43
2024-05-09T11:19:51.492Z,34.32
2024-05-09T11:21:57.686Z,31.22
2024-05-09T11:24:01.318Z,33.48
2024-05-09T11:26:05.058Z,33.68
2024-05-09T11:28:08.466Z,34.15
2024-05-09T11:30:26.719Z,32.57
2024-05-09T11:32:38.443Z,33.12
2024-05-09T11:34:42.531Z,31.83
2024-05-09T11:36:45.916Z,33.15
2024-05-09T11:38:51.756Z,34.69
2024-05-09T11:40:55.179Z,31.09
2024-05-09T11:42:58.683Z,32.98
2024-05-09T11:45:01.865Z,30.92
2024-05-09T11:47:05.714Z,31.05
2024-05-09T11:49:10.061Z,31.99
2024-05-09T11:51:13.202Z,34.84
2024-05-09T11:53:16.455Z,32.86
2024-05-09T11:55:27.410Z,32.98
2024-05-09T11:57:31.691Z,34.16
2024-05-09T11:59:34.845Z,31.68
2024-05-09T12:01:38.349Z,30.88
2024-05-09T12:03:41.523Z,31.55
2024-05-09T12:05:45.519Z,32.31
2024-05-09T12:07:49.074Z,32.39
2024-05-09T12:09:52.242Z,27.57
2024-05-09T12:11:58.181Z,30.89
2024-05-09T12:14:01.430Z,29.42
2024-05-09T12:16:04.839Z,30.74
2024-05-09T12:18:08.589Z,30.09
2024-05-09T12:20:21.081Z,29.45
2024-05-09T12:22:29.026Z,30.29
2024-05-09T12:24:32.275Z,30.62
2024-05-09T12:26:35.729Z,30.60
2024-05-09T12:28:41.694Z,30.65
2024-05-09T12:30:44.952Z,31.18
2024-05-09T12:32:50.002Z,30.66
2024-05-09T12:34:53.338Z,31.28
2024-05-09T12:36:56.615Z,31.36
2024-05-09T12:39:00.005Z,28.43
2024-05-09T12:41:03.134Z,29.12
2024-05-09T12:43:08.602Z,29.30
2024-05-09T12:45:15.899Z,31.01
2024-05-09T12:47:19.667Z,29.49
2024-05-09T12:49:24.888Z,30.90
2024-05-09T12:51:28.300Z,30.45
2024-05-09T12:53:31.495Z,28.99
2024-05-09T12:55:43.813Z,29.84
2024-05-09T12:57:51.937Z,29.02
2024-05-09T12:59:55.836Z,29.16
2024-05-09T13:02:01.788Z,27.78
2024-05-09T13:04:05.504Z,33.60
2024-05-09T13:06:09.232Z,32.70
2024-05-09T13:08:13.550Z,31.28
2024-05-09T13:10:25.523Z,33.04
2024-05-09T13:12:35.040Z,32.81
2024-05-09T13:14:38.476Z,33.57
2024-05-09T13:16:41.772Z,32.73
2024-05-09T13:18:47.867Z,31.60
2024-05-09T13:20:51.175Z,32.94
2024-05-09T13:22:54.273Z,32.12
2024-05-09T13:24:57.726Z,29.56
2024-05-09T13:27:00.889Z,30.19
2024-05-09T13:29:04.146Z,31.30
2024-05-09T13:31:07.325Z,30.86
2024-05-09T13:33:12.128Z,29.81
2024-05-09T13:35:19.107Z,31.58
2024-05-09T13:37:22.785Z,31.16
2024-05-09T13:39:25.902Z,29.23
2024-05-09T13:41:29.131Z,31.25
2024-05-09T13:43:32.668Z,31.83
2024-05-09T13:45:36.142Z,30.91
2024-05-09T13:47:39.740Z,33.57
2024-05-09T13:49:43.745Z,35.25
2024-05-09T13:51:49.869Z,32.11
2024-05-09T13:53:53.441Z,32.28
2024-05-09T13:55:56.744Z,35.02
2024-05-09T13:58:00.414Z,32.25
2024-05-09T14:00:06.894Z,33.79
2024-05-09T14:02:14.897Z,33.30
2024-05-09T14:04:18.496Z,31.28
2024-05-09T14:06:22.297Z,30.21
2024-05-09T14:08:28.459Z,30.98
2024-05-09T14:10:32.542Z,33.06
2024-05-09T14:12:36.228Z,30.04
2024-05-09T14:14:39.454Z,31.33
2024-05-09T14:16:43.584Z,28.71
2024-05-09T14:18:46.934Z,32.75
2024-05-09T14:20:50.110Z,31.57
2024-05-09T14:22:53.387Z,32.02
2024-05-09T14:24:59.344Z,33.05
2024-05-09T14:27:02.705Z,32.28
2024-05-09T14:29:05.972Z,30.84
2024-05-09T14:31:09.294Z,29.96
2024-05-09T14:33:12.934Z,30.50
2024-05-09T14:35:16.440Z,29.20
2024-05-09T14:37:19.606Z,31.08
2024-05-09T14:39:22.927Z,30.16
2024-05-09T14:41:28.792Z,31.28
2024-05-09T14:43:32.885Z,32.97
2024-05-09T14:45:36.379Z,33.13
2024-05-09T14:47:39.773Z,35.32
2024-05-09T14:49:42.939Z,34.11
2024-05-09T14:51:48.253Z,34.42
2024-05-09T14:53:51.445Z,36.75
2024-05-09T14:55:54.833Z,35.54
2024-05-09T14:58:00.876Z,34.91
2024-05-09T15:00:06.912Z,37.66
2024-05-09T15:02:12.282Z,35.11
2024-05-09T15:04:15.780Z,35.41
2024-05-09T15:06:19.365Z,34.74
2024-05-09T15:08:22.612Z,33.97
2024-05-09T15:10:33.812Z,36.62
2024-05-09T15:12:39.338Z,35.94
2024-05-09T15:14:45.299Z,35.72
2024-05-09T15:16:49.055Z,36.24
2024-05-09T15:18:52.562Z,37.29
2024-05-09T15:20:56.194Z,36.40
2024-05-09T15:22:59.548Z,36.68
2024-05-09T15:25:02.888Z,35.50
2024-05-09T15:27:06.283Z,35.39
2024-05-09T15:29:09.604Z,35.36
2024-05-09T15:31:15.486Z,34.98
2024-05-09T15:33:19.032Z,35.75
2024-05-09T15:35:22.265Z,35.46
2024-05-09T15:37:25.754Z,35.38
2024-05-09T15:39:30.730Z,35.31
2024-05-09T15:41:33.968Z,35.37
2024-05-09T15:43:37.360Z,34.32
2024-05-09T15:45:41.639Z,36.21
2024-05-09T15:47:48.256Z,36.70
2024-05-09T15:49:52.359Z,36.22
2024-05-09T15:51:55.524Z,38.33
2024-05-09T15:53:59.299Z,38.48
2024-05-09T15:56:02.497Z,37.52
2024-05-09T15:58:06.996Z,37.68
2024-05-09T16:00:21.470Z,38.25
2024-05-09T16:02:28.444Z,36.32
2024-05-09T16:04:34.534Z,36.65
2024-05-09T16:06:38.068Z,36.92
2024-05-09T16:08:41.363Z,40.37
2024-05-09T16:10:48.331Z,39.90
2024-05-09T16:12:51.726Z,38.07
2024-05-09T16:14:55.069Z,36.67
2024-05-09T16:16:58.293Z,37.55
2024-05-09T16:19:02.064Z,39.10
2024-05-09T16:21:08.775Z,40.83
2024-05-09T16:23:13.025Z,42.04
2024-05-09T16:25:17.335Z,38.70
2024-05-09T16:27:22.498Z,39.46
2024-05-09T16:29:25.729Z,42.59
2024-05-09T16:31:29.504Z,39.94
2024-05-09T16:33:32.897Z,40.08
2024-05-09T16:35:36.543Z,40.49
2024-05-09T16:37:42.598Z,42.39
2024-05-09T16:39:45.902Z,41.02
2024-05-09T16:41:49.135Z,41.96
2024-05-09T16:43:52.520Z,41.41
2024-05-09T16:45:55.702Z,42.81
2024-05-09T16:48:00.516Z,41.08
2024-05-09T16:50:05.309Z,42.56
2024-05-09T16:52:09.985Z,42.13
2024-05-09T16:54:15.920Z,40.24
2024-05-09T16:56:19.424Z,42.42
2024-05-09T16:58:22.650Z,43.99
2024-05-09T17:00:35.905Z,42.63
2024-05-09T17:02:44.645Z,44.64
2024-05-09T17:04:48.458Z,44.21
2024-05-09T17:06:51.669Z,44.85
2024-05-09T17:08:55.599Z,47.29
2024-05-09T17:11:05.286Z,48.15
2024-05-09T17:13:08.712Z,46.29
2024-05-09T17:15:12.505Z,47.41
2024-05-09T17:17:15.805Z,46.38
2024-05-09T17:19:19.300Z,47.02
2024-05-09T17:21:22.667Z,45.55
2024-05-09T17:23:25.923Z,51.00
2024-05-09T17:25:29.574Z,48.58
2024-05-09T17:27:35.883Z,46.71
2024-05-09T17:29:39.554Z,47.18
2024-05-09T17:31:43.115Z,50.41
2024-05-09T17:33:46.583Z,49.83
2024-05-09T17:35:51.734Z,48.73
2024-05-09T17:37:55.144Z,52.88
2024-05-09T17:39:58.489Z,49.68
2024-05-09T17:42:01.899Z,49.37
2024-05-09T17:44:07.684Z,50.41
2024-05-09T17:46:11.236Z,54.16
2024-05-09T17:48:14.710Z,51.73
2024-05-09T17:50:24.592Z,59.50
2024-05-09T17:52:33.698Z,55.97
2024-05-09T17:54:37.166Z,54.54
2024-05-09T17:56:40.384Z,53.05
2024-05-09T17:58:43.634Z,53.58
2024-05-09T18:00:49.779Z,53.47
2024-05-09T18:02:53.142Z,53.37
2024-05-09T18:04:56.381Z,58.58
2024-05-09T18:07:00.060Z,55.92
2024-05-09T18:09:03.384Z,54.64
2024-05-09T18:11:06.874Z,55.46
2024-05-09T18:13:10.949Z,54.19
2024-05-09T18:15:14.664Z,53.93
2024-05-09T18:17:23.581Z,53.18
2024-05-09T18:19:28.879Z,54.52
2024-05-09T18:21:32.247Z,55.27
2024-05-09T18:23:35.595Z,56.10
2024-05-09T18:25:38.861Z,58.60
2024-05-09T18:27:42.501Z,57.16
2024-05-09T18:29:45.664Z,56.22
2024-05-09T18:31:48.940Z,53.87
2024-05-09T18:33:55.139Z,53.63
2024-05-09T18:35:58.687Z,53.88
2024-05-09T18:38:02.042Z,53.65
2024-05-09T18:40:11.737Z,53.73
2024-05-09T18:42:15.085Z,54.49
2024-05-09T18:44:18.886Z,54.91
2024-05-09T18:46:22.463Z,56.37
2024-05-09T18:48:25.893Z,60.30
2024-05-09T18:50:36.070Z,60.72
2024-05-09T18:52:42.277Z,61.17
2024-05-09T18:54:45.470Z,60.35
2024-05-09T18:56:48.764Z,58.46
2024-05-09T18:58:52.851Z,57.64
2024-05-09T19:00:58.402Z,57.91
2024-05-09T19:03:07.255Z,58.78
2024-05-09T19:05:18.276Z,61.84
2024-05-09T19:07:26.329Z,63.50
2024-05-09T19:09:30.110Z,63.82
2024-05-09T19:11:35.899Z,63.18
2024-05-09T19:13:44.061Z,62.17
2024-05-09T19:15:49.138Z,62.50
2024-05-09T19:17:54.938Z,63.29
2024-05-09T19:19:58.391Z,62.26
2024-05-09T19:22:06.071Z,60.96
2024-05-09T19:24:19.524Z,59.91
2024-05-09T19:26:30.054Z,59.87
2024-05-09T19:28:40.791Z,60.83
2024-05-09T19:30:50.571Z,61.78
2024-05-09T19:32:59.048Z,64.88
2024-05-09T19:35:08.802Z,71.21
2024-05-09T19:37:18.227Z,68.32
2024-05-09T19:39:31.279Z,65.37
2024-05-09T19:41:40.116Z,64.63
2024-05-09T19:43:49.850Z,69.38
2024-05-09T19:45:59.890Z,66.70
2024-05-09T19:48:06.938Z,63.65
2024-05-09T19:50:16.302Z,63.75
2024-05-09T19:52:26.557Z,63.71
2024-05-09T19:54:32.670Z,63.01
2024-05-09T19:56:35.989Z,63.16
2024-05-09T19:58:39.214Z,64.13
2024-05-09T20:00:44.052Z,63.86
2024-05-09T20:02:47.675Z,65.55
2024-05-09T20:04:51.797Z,65.35
2024-05-09T20:06:55.312Z,64.69
2024-05-09T20:08:59.975Z,64.63
2024-05-09T20:11:06.290Z,64.42
2024-05-09T20:13:09.721Z,63.95
2024-05-09T20:15:17.780Z,64.11
2024-05-09T20:17:23.053Z,63.98
2024-05-09T20:19:30.937Z,63.52
2024-05-09T20:21:46.104Z,64.00
2024-05-09T20:23:51.203Z,64.62
2024-05-09T20:25:54.315Z,64.94
2024-05-09T20:28:00.317Z,65.48
2024-05-09T20:30:08.061Z,65.18
2024-05-09T20:32:15.318Z,67.59
2024-05-09T20:34:18.524Z,67.90
2024-05-09T20:36:22.036Z,68.65
2024-05-09T20:38:25.247Z,68.98
2024-05-09T20:40:32.907Z,68.03
2024-05-09T20:42:39.998Z,67.67
2024-05-09T20:44:45.846Z,67.80
2024-05-09T20:46:49.198Z,71.72
2024-05-09T20:48:52.444Z,72.51
2024-05-09T20:50:55.828Z,70.87
2024-05-09T20:52:58.985Z,70.01
2024-05-09T20:55:02.287Z,70.50
2024-05-09T20:57:06.826Z,72.23
2024-05-09T20:59:10.115Z,72.11
2024-05-09T21:01:16.085Z,71.59
2024-05-09T21:03:20.054Z,73.36
2024-05-09T21:05:23.277Z,73.81
2024-05-09T21:07:26.684Z,74.39
2024-05-09T21:09:29.755Z,76.31
2024-05-09T21:11:33.293Z,76.79
2024-05-09T21:13:36.630Z,76.77
2024-05-09T21:15:39.931Z,77.95
2024-05-09T21:17:46.013Z,79.11
2024-05-09T21:19:49.703Z,81.22
2024-05-09T21:21:53.475Z,84.27
2024-05-09T21:23:56.836Z,86.71
2024-05-09T21:26:00.052Z,86.73
2024-05-09T21:28:04.399Z,87.07
2024-05-09T21:30:13.290Z,85.62
2024-05-09T21:32:22.101Z,85.99
2024-05-09T21:34:28.510Z,86.10
2024-05-09T21:36:31.903Z,88.08
2024-05-09T21:38:36.543Z,86.76
2024-05-09T21:40:39.985Z,87.21
2024-05-09T21:42:43.360Z,87.31
2024-05-09T21:44:46.586Z,88.06
2024-05-09T21:46:49.811Z,88.06
2024-05-09T21:48:53.646Z,86.53
2024-05-09T21:50:59.805Z,85.09
2024-05-09T21:53:03.356Z,84.22
2024-05-09T21:55:07.199Z,83.63
2024-05-09T21:57:11.410Z,83.59
2024-05-09T21:59:14.585Z,83.45
2024-05-09T22:01:17.882Z,83.69
2024-05-09T22:03:21.183Z,83.32
2024-05-09T22:05:24.846Z,83.05
2024-05-09T22:07:30.990Z,83.92
2024-05-09T22:09:34.302Z,84.77
2024-05-09T22:11:37.506Z,85.35
2024-05-09T22:13:40.981Z,87.88
2024-05-09T22:15:44.291Z,89.72
2024-05-09T22:17:47.805Z,90.34
2024-05-09T22:19:51.015Z,90.54
2024-05-09T22:21:55.663Z,90.28
2024-05-09T22:24:01.510Z,90.73
2024-05-09T22:26:04.971Z,90.59
2024-05-09T22:28:08.679Z,91.05
2024-05-09T22:30:20.872Z,90.49
2024-05-09T22:32:27.369Z,90.15
2024-05-09T22:34:30.573Z,89.70
2024-05-09T22:36:33.851Z,90.96
2024-05-09T22:38:37.092Z,92.28
2024-05-09T22:40:48.087Z,91.00
2024-05-09T22:42:53.173Z,90.82
2024-05-09T22:44:56.242Z,90.66
2024-05-09T22:46:59.587Z,90.11
2024-05-09T22:49:02.942Z,89.95
2024-05-09T22:51:06.433Z,89.15
2024-05-09T22:53:09.889Z,90.61
2024-05-09T22:55:13.184Z,91.21
2024-05-09T22:57:19.183Z,90.98
2024-05-09T22:59:22.430Z,91.60
2024-05-09T23:01:26.903Z,90.95
2024-05-09T23:03:30.480Z,92.92
2024-05-09T23:05:33.933Z,91.48
2024-05-09T23:07:37.165Z,90.78
2024-05-09T23:09:40.289Z,90.56
2024-05-09T23:11:45.410Z,91.07
2024-05-09T23:13:51.295Z,90.85
2024-05-09T23:15:54.479Z,90.92
2024-05-09T23:17:58.395Z,90.63
2024-05-09T23:20:03.843Z,90.32
2024-05-09T23:22:08.339Z,90.80
2024-05-09T23:24:11.535Z,93.12
2024-05-09T23:26:14.917Z,92.35
2024-05-09T23:28:18.185Z,91.89
2024-05-09T23:30:33.581Z,91.94
2024-05-09T23:32:41.222Z,92.18
2024-05-09T23:34:44.426Z,92.24
2024-05-09T23:36:47.907Z,92.55
2024-05-09T23:38:51.022Z,92.78
2024-05-09T23:40:54.382Z,92.68
2024-05-09T23:42:57.598Z,93.17
2024-05-09T23:45:00.703Z,93.24
2024-05-09T23:47:08.574Z,93.45
2024-05-09T23:49:13.805Z,93.20
2024-05-09T23:51:16.867Z,93.15
2024-05-09T23:53:20.071Z,93.01
2024-05-09T23:55:23.351Z,92.87
2024-05-09T23:57:26.545Z,92.80
2024-05-09T23:59:29.635Z,92.21
